Time;durP1;ratioP1;P1;durP2;ratioP2;P2;SDS_P1;SDS_P2;PMS_P1;PMS_P2;Temp;Humidity;BMP_temperature;BMP_pressure;BME280_temperature;BME280_humidity;BME280_pressure;Samples;Min_cycle;Max_cycle;Signal;HPM_P1;HPM_P2
2023/03/27 00:01:17;;;;;;;0.40;0.30;;;;;;;13.50;44.78;94591.19;5132204;27;20482;-55
2023/03/27 00:03:47;;;;;;;0.40;0.30;;;;;;;13.49;45.02;94585.06;5131582;28;20456;-55
2023/03/27 00:06:19;;;;;;;0.40;0.30;;;;;;;13.50;44.73;94583.19;5132029;28;20781;-56
2023/03/27 00:08:49;;;;;;;0.50;0.30;;;;;;;13.46;45.22;94579.59;5131526;28;20539;-56
2023/03/27 00:11:19;;;;;;;0.30;0.20;;;;;;;13.48;45.13;94580.06;5131946;28;20431;-56
2023/03/27 00:13:48;;;;;;;0.30;0.23;;;;;;;12.93;45.25;94491.75;5131664;28;20435;-56
2023/03/27 00:16:18;;;;;;;0.40;0.20;;;;;;;13.44;44.78;94577.22;5132174;27;20438;-56
2023/03/27 00:18:47;;;;;;;0.30;0.30;;;;;;;13.38;44.91;94567.78;5131950;27;20431;-56
2023/03/27 00:21:16;;;;;;;1.10;0.30;;;;;;;13.33;44.99;94566.03;5132277;28;20470;-56
2023/03/27 00:23:45;;;;;;;0.30;0.20;;;;;;;13.42;44.44;94563.41;5131716;28;20462;-56
2023/03/27 00:26:14;;;;;;;0.40;0.30;;;;;;;13.41;45.12;94551.19;5132339;28;20814;-56
2023/03/27 00:28:42;;;;;;;0.30;0.20;;;;;;;13.31;45.20;94556.78;5131538;28;20443;-56
2023/03/27 00:31:12;;;;;;;0.33;0.23;;;;;;;13.16;45.24;94549.97;5131844;28;20431;-56
2023/03/27 00:33:41;;;;;;;0.30;0.20;;;;;;;13.08;46.22;94549.91;5131899;27;20445;-56
2023/03/27 00:36:10;;;;;;;0.40;0.30;;;;;;;13.00;46.78;94539.97;5131314;28;20439;-54
2023/03/27 00:38:39;;;;;;;0.30;0.20;;;;;;;13.09;46.53;94544.28;5130522;28;20438;-54
2023/03/27 00:41:09;;;;;;;0.40;0.40;;;;;;;12.64;48.07;94535.47;5130931;28;20527;-56
2023/03/27 00:43:42;;;;;;;0.50;0.30;;;;;;;12.67;48.07;94528.78;5131461;28;20503;-57
2023/03/27 00:46:30;;;;;;;0.40;0.40;;;;;;;12.60;48.21;94521.19;5131529;27;20444;-57
2023/03/27 00:49:01;;;;;;;0.40;0.40;;;;;;;12.71;47.75;94532.38;5134907;27;20533;-56
2023/03/27 00:51:31;;;;;;;0.57;0.57;;;;;;;12.63;47.63;94531.22;5109252;27;20442;-56
2023/03/27 00:54:00;;;;;;;0.40;0.30;;;;;;;12.54;47.55;94518.97;5134417;27;20470;-55
2023/03/27 00:56:32;;;;;;;0.30;0.20;;;;;;;12.54;47.82;94521.63;5134957;27;20468;-55
2023/03/27 00:59:03;;;;;;;0.40;0.40;;;;;;;12.57;47.58;94521.78;5134913;27;20435;-55
2023/03/27 01:01:32;;;;;;;0.40;0.33;;;;;;;12.50;47.96;94525.94;5134958;27;20509;-55
2023/03/27 01:04:04;;;;;;;0.30;0.20;;;;;;;12.43;48.20;94531.69;5134578;27;21031;-57
2023/03/27 01:06:33;;;;;;;0.57;0.50;;;;;;;12.16;48.46;94515.81;5134703;27;20442;-55
2023/03/27 01:09:03;;;;;;;0.40;0.30;;;;;;;12.34;48.11;94538.00;5134801;27;20438;-57
2023/03/27 01:11:43;;;;;;;0.30;0.20;;;;;;;12.29;48.03;94530.94;5135067;27;20469;-55
2023/03/27 01:14:21;;;;;;;0.40;0.20;;;;;;;12.02;49.17;94533.63;5109002;27;20445;-55
2023/03/27 01:17:07;;;;;;;0.30;0.20;;;;;;;11.80;49.63;94514.97;5134433;27;20473;-55
2023/03/27 01:19:58;;;;;;;0.53;0.50;;;;;;;11.26;52.07;94532.38;5134603;27;20438;-55
2023/03/27 01:22:57;;;;;;;1.80;0.70;;;;;;;11.73;50.26;94525.19;5134151;27;20439;-55
2023/03/27 01:25:50;;;;;;;0.50;0.50;;;;;;;11.26;51.81;94529.72;5134271;27;20972;-55
2023/03/27 01:28:35;;;;;;;0.50;0.40;;;;;;;11.77;49.55;94508.38;5134327;27;20443;-55
2023/03/27 01:31:23;;;;;;;0.40;0.20;;;;;;;11.75;49.86;94529.13;5134351;27;20443;-55
2023/03/27 01:34:08;;;;;;;0.83;0.30;;;;;;;11.87;49.94;94525.97;5134244;27;20442;-55
2023/03/27 01:36:59;;;;;;;0.30;0.20;;;;;;;11.60;49.99;94494.88;5134358;27;20526;-55
2023/03/27 01:39:35;;;;;;;0.60;0.30;;;;;;;11.75;49.34;94505.22;5133944;27;20481;-55
2023/03/27 01:42:08;;;;;;;0.37;0.23;;;;;;;11.69;49.83;94501.09;5134011;27;20478;-55
2023/03/27 01:44:45;;;;;;;0.40;0.30;;;;;;;11.71;49.55;94500.81;5133690;27;20435;-55
2023/03/27 01:47:23;;;;;;;0.40;0.30;;;;;;;11.44;50.68;94509.50;5134061;27;20537;-55
2023/03/27 01:49:56;;;;;;;0.40;0.20;;;;;;;11.41;51.27;94505.56;5107560;27;20513;-55
2023/03/27 01:52:31;;;;;;;0.30;0.20;;;;;;;11.40;50.96;94511.97;5133669;27;20961;-55
2023/03/27 01:55:08;;;;;;;0.40;0.30;;;;;;;11.34;51.65;94499.88;5134126;27;20438;-55
2023/03/27 01:57:47;;;;;;;0.30;0.20;;;;;;;11.27;50.95;94491.53;5132889;27;20434;-55
2023/03/27 02:00:21;;;;;;;0.40;0.30;;;;;;;11.10;50.75;94440.91;5133210;27;20435;-56
2023/03/27 02:02:55;;;;;;;0.63;0.63;;;;;;;11.23;51.04;94482.56;5133861;27;20434;-56
2023/03/27 02:05:30;;;;;;;0.40;0.30;;;;;;;11.17;52.06;94478.44;5133519;27;20521;-56
2023/03/27 02:08:06;;;;;;;0.40;0.20;;;;;;;11.17;52.13;94481.09;5133489;27;20434;-56
2023/03/27 02:10:40;;;;;;;0.40;0.20;;;;;;;11.10;52.24;94493.16;5129353;27;20470;-55
2023/03/27 02:13:17;;;;;;;0.40;0.30;;;;;;;10.88;52.92;94485.06;5133442;27;20958;-55
2023/03/27 02:15:48;;;;;;;0.50;0.40;;;;;;;10.82;53.15;94465.81;5132754;27;20435;-56
2023/03/27 02:18:22;;;;;;;0.70;0.50;;;;;;;10.73;52.55;94436.53;5132543;27;20442;-55
2023/03/27 02:20:50;;;;;;;0.40;0.30;;;;;;;10.92;52.78;94456.88;5132357;27;20877;-56
2023/03/27 02:23:21;;;;;;;0.40;0.40;;;;;;;10.80;53.69;94467.97;5132516;27;20466;-55
2023/03/27 02:25:53;;;;;;;0.30;0.20;;;;;;;10.86;53.40;94469.44;5132846;27;20994;-56
2023/03/27 02:28:47;;;;;;;0.87;0.30;;;;;;;10.89;53.22;94471.50;5132668;27;20441;-56
2023/03/27 02:31:31;;;;;;;0.30;0.20;;;;;;;10.70;53.51;94466.25;5133186;27;20473;-56
2023/03/27 02:34:27;;;;;;;0.40;0.30;;;;;;;10.87;52.85;94463.06;5133193;27;20885;-56
2023/03/27 02:37:01;;;;;;;0.37;0.27;;;;;;;10.88;53.34;94447.94;5132801;27;20443;-56
2023/03/27 02:39:37;;;;;;;1.60;0.47;;;;;;;10.36;54.28;94420.72;5132686;27;20448;-56
2023/03/27 02:42:12;;;;;;;0.30;0.20;;;;;;;10.55;53.88;94457.78;5132798;27;20476;-56
2023/03/27 02:44:50;;;;;;;0.40;0.30;;;;;;;10.81;53.94;94467.66;5132534;27;21010;-56
2023/03/27 02:47:26;;;;;;;0.40;0.37;;;;;;;10.78;53.48;94460.28;5132892;27;20442;-56
2023/03/27 02:50:00;;;;;;;0.30;0.20;;;;;;;10.73;53.19;94462.22;5106609;27;20800;-56
2023/03/27 02:52:33;;;;;;;0.40;0.30;;;;;;;10.66;52.98;94453.88;5132564;27;20443;-56
2023/03/27 02:55:06;;;;;;;1.67;0.30;;;;;;;10.60;54.15;94458.47;5133092;27;20457;-56
2023/03/27 02:57:38;;;;;;;0.30;0.30;;;;;;;10.37;54.60;94450.63;5132902;27;20471;-56
2023/03/27 03:00:24;;;;;;;0.40;0.30;;;;;;;10.47;55.21;94438.03;5132794;27;20439;-56
2023/03/27 03:02:58;;;;;;;0.30;0.20;;;;;;;10.53;54.74;94433.41;5132674;27;20471;-56
2023/03/27 03:05:27;;;;;;;0.40;0.30;;;;;;;10.54;55.16;94435.00;5132384;27;20426;-56
2023/03/27 03:07:57;;;;;;;0.40;0.30;;;;;;;10.45;55.13;94431.44;5131124;27;20446;-56
2023/03/27 03:10:26;;;;;;;0.30;0.30;;;;;;;10.34;55.43;94432.66;5130523;27;20542;-56
2023/03/27 03:12:56;;;;;;;0.50;0.40;;;;;;;10.32;55.42;94429.53;5132828;27;20435;-56
2023/03/27 03:15:24;;;;;;;0.40;0.30;;;;;;;10.32;55.91;94414.44;5132854;27;20435;-55
2023/03/27 03:17:53;;;;;;;0.30;0.20;;;;;;;10.15;55.12;94398.25;5132362;27;20468;-56
2023/03/27 03:20:22;;;;;;;0.30;0.20;;;;;;;10.30;55.56;94421.06;5132230;27;20511;-56
2023/03/27 03:22:51;;;;;;;0.30;0.20;;;;;;;10.29;56.21;94411.56;5131849;27;20982;-55
2023/03/27 03:25:19;;;;;;;0.30;0.30;;;;;;;10.37;55.65;94408.25;5131957;27;20525;-55
2023/03/27 03:27:48;;;;;;;0.80;0.80;;;;;;;10.02;55.13;94359.25;5132484;27;20927;-56
2023/03/27 03:30:18;;;;;;;0.30;0.20;;;;;;;10.30;55.57;94405.16;5131767;27;20981;-56
2023/03/27 03:32:46;;;;;;;0.30;0.20;;;;;;;10.22;56.67;94400.56;5132104;27;20439;-56
2023/03/27 03:35:15;;;;;;;0.40;0.30;;;;;;;10.20;56.12;94401.63;5105813;28;20438;-55
2023/03/27 03:37:47;;;;;;;0.50;0.37;;;;;;;8.94;56.69;94218.28;5131987;28;20438;-56
2023/03/27 03:40:19;;;;;;;0.40;0.30;;;;;;;9.56;58.82;94401.47;5132144;27;20974;-56
2023/03/27 03:42:49;;;;;;;0.40;0.40;;;;;;;9.94;57.09;94396.97;5131806;28;20515;-55
2023/03/27 03:45:20;;;;;;;0.40;0.30;;;;;;;9.44;59.19;94395.78;5131641;27;20434;-56
2023/03/27 03:47:48;;;;;;;0.40;0.30;;;;;;;9.38;58.02;94389.81;5131135;28;20436;-56
2023/03/27 03:50:17;;;;;;;0.50;0.40;;;;;;;9.27;59.41;94390.19;5132051;28;20513;-56
2023/03/27 03:52:46;;;;;;;0.40;0.30;;;;;;;9.22;59.38;94382.31;5131891;27;20448;-56
2023/03/27 03:55:15;;;;;;;0.40;0.30;;;;;;;9.03;60.76;94374.38;5131929;27;20434;-56
2023/03/27 03:57:47;;;;;;;0.43;0.30;;;;;;;9.36;59.99;94385.88;5131688;28;20433;-56
2023/03/27 04:00:17;;;;;;;5.40;1.50;;;;;;;9.36;59.88;94381.34;5132120;28;20526;-56
2023/03/27 04:02:50;;;;;;;0.40;0.30;;;;;;;9.35;60.43;94387.72;5131527;28;20476;-57
2023/03/27 04:05:19;;;;;;;0.33;0.27;;;;;;;9.54;59.39;94366.56;5131500;27;20888;-55
2023/03/27 04:07:48;;;;;;;0.57;0.40;;;;;;;9.52;60.70;94395.16;5132047;28;20437;-56
2023/03/27 04:10:17;;;;;;;0.30;0.20;;;;;;;9.55;60.18;94391.94;5132033;28;20437;-56
2023/03/27 04:12:50;;;;;;;0.30;0.30;;;;;;;9.65;60.07;94389.16;5130923;28;20450;-55
2023/03/27 04:15:18;;;;;;;0.30;0.23;;;;;;;9.93;58.54;94388.25;5131861;28;20440;-56
2023/03/27 04:17:48;;;;;;;0.47;0.33;;;;;;;9.59;60.27;94369.13;5131684;27;20485;-56
2023/03/27 04:20:18;;;;;;;0.40;0.30;;;;;;;9.12;61.06;94375.31;5131602;28;20831;-56
2023/03/27 04:22:48;;;;;;;0.50;0.30;;;;;;;9.02;61.59;94379.91;5131426;27;20527;-56
2023/03/27 04:25:22;;;;;;;0.40;0.30;;;;;;;9.05;60.49;94342.34;5134884;27;20816;-56
2023/03/27 04:27:51;;;;;;;0.80;0.80;;;;;;;9.46;60.17;94381.22;5135147;27;20441;-56
2023/03/27 04:30:22;;;;;;;0.40;0.40;;;;;;;9.61;59.95;94372.31;5108242;27;20437;-56
2023/03/27 04:32:52;;;;;;;0.73;0.73;;;;;;;9.93;58.66;94377.66;5135062;27;20432;-56
2023/03/27 04:35:22;;;;;;;0.40;0.30;;;;;;;9.68;58.44;94334.91;5135345;27;20438;-56
2023/03/27 04:37:51;;;;;;;0.40;0.30;;;;;;;9.75;59.45;94386.38;5135324;27;20439;-56
2023/03/27 04:40:20;;;;;;;0.90;0.70;;;;;;;9.44;60.33;94382.56;5134982;27;20585;-56
2023/03/27 04:42:49;;;;;;;0.60;0.60;;;;;;;9.15;61.25;94373.97;5134381;27;20513;-57
2023/03/27 04:45:21;;;;;;;4.43;0.80;;;;;;;9.72;59.25;94371.06;5135089;27;20473;-56
2023/03/27 04:47:51;;;;;;;0.40;0.30;;;;;;;10.15;57.45;94377.88;5134547;27;20434;-56
2023/03/27 04:50:19;;;;;;;0.50;0.50;;;;;;;10.19;57.19;94386.78;5135151;27;20427;-56
2023/03/27 04:52:48;;;;;;;1.43;1.33;;;;;;;10.02;57.81;94378.56;5134527;27;20434;-56
2023/03/27 04:55:18;;;;;;;0.97;0.40;;;;;;;10.08;58.16;94382.72;5135084;27;20520;-56
2023/03/27 04:57:47;;;;;;;0.80;0.70;;;;;;;9.92;58.46;94376.06;5134919;27;20441;-56
2023/03/27 05:00:17;;;;;;;0.73;0.70;;;;;;;9.28;60.75;94386.50;5133556;27;20493;-56
2023/03/27 05:02:47;;;;;;;0.40;0.30;;;;;;;9.29;60.53;94382.75;5134146;27;20554;-56
2023/03/27 05:05:18;;;;;;;1.63;0.70;;;;;;;9.49;60.26;94375.34;5134686;27;21095;-56
2023/03/27 05:07:47;;;;;;;0.43;0.40;;;;;;;9.63;59.54;94375.44;5135035;27;20448;-57
2023/03/27 05:10:16;;;;;;;1.30;0.73;;;;;;;9.85;59.43;94369.56;5134586;27;21019;-56
2023/03/27 05:12:51;;;;;;;0.53;0.53;;;;;;;9.41;60.13;94309.88;5134575;27;20797;-56
2023/03/27 05:15:21;;;;;;;0.50;0.37;;;;;;;9.64;60.47;94361.13;5120726;27;21074;-56
2023/03/27 05:17:53;;;;;;;0.30;0.30;;;;;;;10.02;59.57;94364.53;5134310;27;20919;-57
2023/03/27 05:20:23;;;;;;;0.77;0.77;;;;;;;9.90;60.32;94362.34;5134025;27;20445;-57
2023/03/27 05:22:53;;;;;;;2.53;0.40;;;;;;;10.16;59.39;94363.56;5134379;27;20498;-57
2023/03/27 05:25:23;;;;;;;0.43;0.30;;;;;;;9.28;60.27;94283.38;5134100;27;20538;-57
2023/03/27 05:28:10;;;;;;;1.33;1.33;;;;;;;9.83;60.07;94359.28;5134183;27;20442;-57
2023/03/27 05:30:38;;;;;;;1.80;1.70;;;;;;;8.82;61.15;94283.19;5112189;27;20530;-56
2023/03/27 05:33:06;;;;;;;6.10;2.80;;;;;;;9.01;62.25;94357.19;5133035;27;21067;-56
2023/03/27 05:35:36;;;;;;;2.40;2.30;;;;;;;8.91;63.42;94358.91;5133875;27;20460;-56
2023/03/27 05:38:05;;;;;;;3.47;2.60;;;;;;;9.37;62.70;94348.56;5133551;27;20435;-56
2023/03/27 05:40:34;;;;;;;2.10;2.00;;;;;;;9.62;61.85;94341.31;5133400;27;20442;-56
2023/03/27 05:43:02;;;;;;;2.33;2.23;;;;;;;10.14;60.17;94341.88;5129315;27;20482;-57
2023/03/27 05:45:31;;;;;;;0.80;0.70;;;;;;;10.40;59.70;94339.59;5125491;27;20441;-56
2023/03/27 05:48:01;;;;;;;3.53;1.10;;;;;;;10.57;59.39;94344.34;5134053;27;20513;-56
2023/03/27 05:50:32;;;;;;;1.47;1.47;;;;;;;10.93;57.89;94337.28;5133990;27;20491;-56
2023/03/27 05:53:04;;;;;;;1.03;1.03;;;;;;;11.29;58.17;94334.72;5133737;27;20496;-56
2023/03/27 05:55:32;;;;;;;3.17;1.27;;;;;;;11.58;57.68;94340.47;5133842;27;20530;-56
2023/03/27 05:58:01;;;;;;;0.70;0.70;;;;;;;11.42;58.17;94333.91;5133629;27;20938;-56
2023/03/27 06:00:32;;;;;;;1.37;0.77;;;;;;;12.08;57.19;94322.63;5133361;27;20521;-56
2023/03/27 06:03:02;;;;;;;0.40;0.30;;;;;;;12.68;55.08;94321.09;5133845;27;20842;-55
2023/03/27 06:05:31;;;;;;;0.40;0.30;;;;;;;12.88;54.41;94322.44;5133408;27;20879;-54
2023/03/27 06:08:00;;;;;;;0.70;0.70;;;;;;;13.48;53.22;94314.66;5133215;27;20478;-54
2023/03/27 06:10:32;;;;;;;1.30;0.70;;;;;;;13.69;52.71;94307.63;5133174;27;20533;-54
2023/03/27 06:13:02;;;;;;;0.60;0.60;;;;;;;13.96;52.21;94307.28;5133826;27;20493;-56
2023/03/27 06:15:31;;;;;;;0.90;0.90;;;;;;;13.55;52.48;94292.88;5133715;27;20545;-56
2023/03/27 06:18:00;;;;;;;1.13;1.03;;;;;;;13.43;52.68;94301.50;5133410;27;20467;-56
2023/03/27 06:20:28;;;;;;;3.40;0.60;;;;;;;14.27;51.12;94274.38;5133088;27;20456;-56
2023/03/27 06:22:58;;;;;;;3.03;1.17;;;;;;;14.88;50.29;94289.88;5132638;27;20976;-56
2023/03/27 06:25:30;;;;;;;0.40;0.33;;;;;;;14.92;49.47;94284.69;5107296;27;20503;-56
2023/03/27 06:28:03;;;;;;;1.60;0.97;;;;;;;15.33;49.69;94281.34;5132724;27;20466;-56
2023/03/27 06:30:31;;;;;;;1.13;0.97;;;;;;;15.93;55.52;94268.34;5133722;27;20439;-62
2023/03/27 06:33:01;;;;;;;1.77;1.30;;;;;;;16.80;55.26;94266.41;5132767;27;20446;-58
2023/03/27 06:35:32;;;;;;;1.60;1.20;;;;;;;16.82;54.42;94264.16;5132869;27;20950;-59
2023/03/27 06:38:02;;;;;;;2.73;1.23;;;;;;;17.86;49.05;94250.91;5133316;27;20534;-59
2023/03/27 06:40:34;;;;;;;0.47;0.47;;;;;;;18.20;48.68;94243.03;5133170;27;20492;-60
2023/03/27 06:43:05;;;;;;;0.70;0.67;;;;;;;18.42;49.83;94244.38;5132500;27;20496;-61
2023/03/27 06:45:36;;;;;;;6.40;0.70;;;;;;;18.66;48.95;94238.91;5132081;27;20530;-61
2023/03/27 06:48:05;;;;;;;0.80;0.77;;;;;;;18.70;44.46;94230.94;5132739;27;20443;-62
2023/03/27 06:50:48;;;;;;;0.77;0.77;;;;;;;18.84;45.27;94228.59;5132903;27;20435;-64
2023/03/27 06:53:16;;;;;;;1.13;1.13;;;;;;;19.10;43.79;94228.06;5132766;27;20446;-65
2023/03/27 06:55:48;;;;;;;2.00;1.90;;;;;;;18.87;45.07;94212.56;5133139;27;20431;-63
2023/03/27 06:58:18;;;;;;;0.93;0.90;;;;;;;19.96;44.28;94210.75;5132873;27;20456;-64
2023/03/27 07:00:48;;;;;;;0.87;0.87;;;;;;;19.84;47.93;94157.88;5132687;27;20432;-63
2023/03/27 07:03:17;;;;;;;1.67;0.77;;;;;;;19.98;45.23;94173.53;5131795;27;20906;-62
2023/03/27 07:05:47;;;;;;;1.90;0.97;;;;;;;20.21;47.80;94188.56;5132562;27;20935;-63
2023/03/27 07:08:17;;;;;;;0.50;0.50;;;;;;;20.37;45.27;94185.00;5132849;27;20426;-63
2023/03/27 07:10:52;;;;;;;0.70;0.60;;;;;;;21.02;44.42;94178.44;5132346;27;20902;-62
2023/03/27 07:13:41;;;;;;;0.40;0.27;;;;;;;21.77;43.91;94169.44;5132031;27;20871;-61
2023/03/27 07:16:10;;;;;;;0.73;0.40;;;;;;;21.47;43.14;94156.78;5132838;27;20439;-61
2023/03/27 07:18:40;;;;;;;0.40;0.40;;;;;;;21.17;42.81;94164.06;5130314;27;20509;-60
2023/03/27 07:21:11;;;;;;;0.70;0.70;;;;;;;20.34;45.44;94146.16;5130678;27;20530;-60
2023/03/27 07:23:40;;;;;;;0.50;0.50;;;;;;;20.82;43.58;94141.94;5129531;27;20486;-60
2023/03/27 07:26:08;;;;;;;0.83;0.83;;;;;;;20.59;44.95;94131.19;5130537;27;20434;-59
2023/03/27 07:28:37;;;;;;;0.63;0.63;;;;;;;20.70;45.62;94123.28;5129917;27;20434;-58
2023/03/27 07:31:12;;;;;;;0.70;0.70;;;;;;;21.36;43.74;94120.03;5131200;27;20771;-58
2023/03/27 07:34:00;;;;;;;1.83;1.73;;;;;;;19.75;47.01;94108.94;5112616;28;20935;-57
2023/03/27 07:36:29;;;;;;;2.37;1.10;;;;;;;19.45;48.71;94103.38;5131905;28;20496;-57
2023/03/27 07:38:57;;;;;;;1.17;1.03;;;;;;;19.81;48.48;94101.38;5132539;28;20437;-57
2023/03/27 07:41:28;;;;;;;1.90;1.00;;;;;;;19.28;48.93;94105.66;5132060;28;20438;-57
2023/03/27 07:43:57;;;;;;;0.87;0.87;;;;;;;19.04;50.05;94098.66;5131751;28;20476;-58
2023/03/27 07:46:27;;;;;;;2.10;0.50;;;;;;;20.27;48.23;94079.53;5131276;27;20465;-57
2023/03/27 07:48:56;;;;;;;0.60;0.60;;;;;;;20.25;48.19;94075.66;5131896;27;20439;-57
2023/03/27 07:51:24;;;;;;;0.90;0.90;;;;;;;19.50;48.86;94072.75;5105158;28;20431;-56
2023/03/27 07:53:57;;;;;;;1.27;1.27;;;;;;;19.56;49.68;94071.31;5131949;28;20441;-56
2023/03/27 07:56:26;;;;;;;12.83;0.80;;;;;;;20.68;48.04;94069.03;5133002;27;20437;-55
2023/03/27 07:58:55;;;;;;;1.17;1.07;;;;;;;20.04;48.27;94038.38;5135872;27;20971;-55
2023/03/27 08:01:24;;;;;;;0.67;0.50;;;;;;;21.68;45.40;94010.63;5136511;27;20890;-60
2023/03/27 08:03:54;;;;;;;1.03;0.60;;;;;;;20.75;46.38;94029.50;5136219;27;20485;-59
2023/03/27 08:06:23;;;;;;;2.20;1.13;;;;;;;19.86;47.85;94015.78;5136273;27;20438;-60
2023/03/27 08:08:51;;;;;;;6.47;1.80;;;;;;;20.09;48.30;94008.50;5135508;27;20794;-60
2023/03/27 08:11:20;;;;;;;1.00;0.90;;;;;;;20.81;46.80;93994.97;5135550;27;20514;-59
2023/03/27 08:13:58;;;;;;;1.27;1.23;;;;;;;19.46;47.97;93991.28;5135006;27;20515;-59
2023/03/27 08:16:28;;;;;;;3.03;2.73;;;;;;;20.01;47.63;94006.81;5135686;27;20462;-59
2023/03/27 08:18:59;;;;;;;5.33;0.97;;;;;;;19.85;47.30;93995.44;5135859;27;20454;-59
2023/03/27 08:21:32;;;;;;;0.50;0.40;;;;;;;20.76;45.72;93954.91;5135044;27;20515;-62
2023/03/27 08:24:02;;;;;;;1.37;1.27;;;;;;;20.13;46.12;93998.59;5135718;27;20518;-60
2023/03/27 08:26:31;;;;;;;0.80;0.80;;;;;;;20.43;45.98;93987.13;5134953;27;21057;-61
2023/03/27 08:28:59;;;;;;;1.03;1.03;;;;;;;20.14;45.86;93951.72;5135921;27;20434;-61
2023/03/27 08:31:29;;;;;;;0.70;0.60;;;;;;;19.37;47.41;94004.97;5135411;27;21881;-62
2023/03/27 08:33:59;;;;;;;0.40;0.40;;;;;;;21.00;45.36;93989.44;5134949;27;20883;-61
2023/03/27 08:36:28;;;;;;;1.07;1.07;;;;;;;21.55;44.30;93985.09;5135247;27;20431;-61
2023/03/27 08:38:57;;;;;;;0.57;0.40;;;;;;;19.78;46.67;93995.31;5135502;27;20965;-61
2023/03/27 08:41:29;;;;;;;1.57;0.90;;;;;;;19.64;46.43;93987.00;5135405;27;20442;-63
2023/03/27 08:44:02;;;;;;;0.40;0.30;;;;;;;19.11;46.72;93939.56;5135571;27;20442;-62
2023/03/27 08:46:37;;;;;;;0.50;0.40;;;;;;;20.16;45.73;93986.34;5135808;27;20434;-61
2023/03/27 08:49:13;;;;;;;0.70;0.70;;;;;;;20.02;45.67;93938.47;5135433;27;20438;-59
2023/03/27 08:51:47;;;;;;;0.40;0.40;;;;;;;20.69;44.66;93976.34;5135234;27;20438;-55
2023/03/27 08:54:18;;;;;;;0.50;0.40;;;;;;;21.37;43.67;93973.34;5135008;27;20969;-59
2023/03/27 08:56:47;;;;;;;0.40;0.30;;;;;;;20.42;44.25;93972.13;5135015;27;20783;-57
2023/03/27 08:59:19;;;;;;;0.47;0.40;;;;;;;19.76;45.44;93969.94;5135113;27;20439;-61
2023/03/27 09:01:54;;;;;;;0.90;0.90;;;;;;;20.35;44.60;93951.28;5134974;27;20446;-63
2023/03/27 09:04:34;;;;;;;0.60;0.60;;;;;;;20.24;44.90;93950.34;5135016;27;20470;-63
2023/03/27 09:07:11;;;;;;;0.40;0.30;;;;;;;20.24;45.13;93940.34;5134737;27;20546;-62
2023/03/27 09:09:47;;;;;;;0.50;0.40;;;;;;;19.98;45.72;93940.34;5134548;27;20801;-62
2023/03/27 09:12:27;;;;;;;0.60;0.60;;;;;;;19.54;46.28;93925.78;5134433;27;20446;-61
2023/03/27 09:15:00;;;;;;;1.70;1.00;;;;;;;19.83;46.23;93927.81;5134965;27;20451;-61
2023/03/27 09:17:34;;;;;;;0.73;0.73;;;;;;;19.75;46.35;93871.59;5135007;27;20443;-62
2023/03/27 09:20:16;;;;;;;0.50;0.40;;;;;;;19.48;48.02;93919.94;5134738;27;20869;-62
2023/03/27 09:22:51;;;;;;;1.03;0.33;;;;;;;19.56;46.85;93932.34;5134447;27;20498;-62
2023/03/27 09:25:24;;;;;;;1.90;0.97;;;;;;;19.56;46.37;93928.88;5133168;27;20490;-63
2023/03/27 09:27:53;;;;;;;0.40;0.30;;;;;;;19.21;47.77;93930.94;5135961;27;20943;-66
2023/03/27 09:30:26;;;;;;;0.50;0.50;;;;;;;18.53;49.29;93936.91;5108077;27;20526;-68
2023/03/27 09:32:58;;;;;;;0.43;0.40;;;;;;;18.26;49.25;93913.69;5134802;27;20437;-71
2023/03/27 09:35:28;;;;;;;0.40;0.40;;;;;;;18.45;50.39;93899.50;5135366;27;20526;-72
2023/03/27 09:38:02;;;;;;;0.43;0.33;;;;;;;18.48;49.36;93928.34;5133989;27;20962;-72
2023/03/27 09:40:46;;;;;;;0.40;0.30;;;;;;;18.82;49.05;93904.13;5134486;27;20434;-74
2023/03/27 09:43:18;;;;;;;0.63;0.57;;;;;;;18.75;49.56;93916.63;5133997;27;20439;-72
2023/03/27 09:45:51;;;;;;;0.40;0.30;;;;;;;19.24;48.13;93914.09;5134345;27;20466;-72
2023/03/27 09:48:31;;;;;;;0.40;0.27;;;;;;;19.38;47.60;93925.13;5134776;27;20512;-69
2023/03/27 09:51:01;;;;;;;0.40;0.30;;;;;;;19.29;48.38;93921.88;5133635;27;20477;-69
2023/03/27 09:53:29;;;;;;;0.57;0.40;;;;;;;19.45;48.32;93919.88;5134096;27;20907;-69
2023/03/27 09:56:00;;;;;;;0.40;0.27;;;;;;;19.39;48.43;93914.03;5133717;27;20437;-69
2023/03/27 09:58:35;;;;;;;0.40;0.30;;;;;;;19.60;48.18;93906.34;5134054;27;20439;-71
2023/03/27 10:01:16;;;;;;;0.40;0.30;;;;;;;19.39;47.68;93856.81;5133876;27;20439;-69
2023/03/27 10:03:50;;;;;;;0.50;0.40;;;;;;;19.02;48.25;93873.44;5134135;27;20816;-68
2023/03/27 10:06:29;;;;;;;0.50;0.30;;;;;;;19.29;48.53;93924.56;5134004;27;20500;-68
2023/03/27 10:09:00;;;;;;;0.50;0.43;;;;;;;19.79;47.66;93907.38;5133120;27;20955;-68
2023/03/27 10:11:32;;;;;;;0.40;0.30;;;;;;;19.95;46.99;93898.03;5133333;27;20467;-66
2023/03/27 10:14:09;;;;;;;1.63;0.60;;;;;;;19.42;47.82;93882.97;5126196;27;20434;-65
2023/03/27 10:16:41;;;;;;;0.73;0.73;;;;;;;19.44;48.48;93897.59;5127326;27;20431;-65
2023/03/27 10:19:22;;;;;;;0.50;0.30;;;;;;;19.94;46.90;93877.63;5132829;27;20463;-63
2023/03/27 10:21:53;;;;;;;0.50;0.50;;;;;;;20.38;45.93;93866.34;5132837;27;20431;-63
2023/03/27 10:24:30;;;;;;;0.40;0.20;;;;;;;19.72;47.26;93865.03;5133336;27;20462;-64
2023/03/27 10:27:00;;;;;;;0.50;0.43;;;;;;;20.18;46.13;93874.53;5133195;27;20471;-63
2023/03/27 10:29:32;;;;;;;0.60;0.60;;;;;;;19.91;46.42;93875.66;5133050;27;20439;-64
2023/03/27 10:32:04;;;;;;;5.10;1.50;;;;;;;19.61;46.91;93856.00;5133493;27;20541;-64
2023/03/27 10:34:35;;;;;;;0.60;0.57;;;;;;;19.62;47.00;93849.50;5132277;27;20907;-64
2023/03/27 10:37:19;;;;;;;0.40;0.30;;;;;;;19.62;47.46;93855.66;5132782;27;20931;-64
2023/03/27 10:39:48;;;;;;;0.40;0.30;;;;;;;19.91;47.07;93840.72;5131921;27;20431;-65
2023/03/27 10:42:17;;;;;;;0.50;0.37;;;;;;;19.85;46.64;93839.50;5132871;27;20467;-66
2023/03/27 10:44:48;;;;;;;2.40;0.80;;;;;;;18.60;47.35;93808.25;5132513;27;20803;-67
2023/03/27 10:47:19;;;;;;;0.90;0.70;;;;;;;18.87;47.73;93831.34;5132803;27;20542;-68
2023/03/27 10:49:55;;;;;;;0.70;0.70;;;;;;;18.82;47.61;93830.91;5133483;27;20468;-68
2023/03/27 10:52:33;;;;;;;0.40;0.40;;;;;;;19.10;47.96;93844.78;5132443;27;20955;-66
2023/03/27 10:55:14;;;;;;;2.30;1.20;;;;;;;18.65;48.99;93848.22;5132582;27;20999;-66
2023/03/27 10:57:48;;;;;;;0.50;0.30;;;;;;;18.31;49.92;93835.66;5132585;27;20850;-67
2023/03/27 11:00:23;;;;;;;0.40;0.33;;;;;;;18.14;52.84;93814.63;5132883;27;20963;-67
2023/03/27 11:02:58;;;;;;;0.40;0.33;;;;;;;18.02;54.18;93822.78;5106999;27;20481;-60
2023/03/27 11:05:31;;;;;;;0.60;0.40;;;;;;;17.86;55.16;93812.09;5132271;27;20522;-59
2023/03/27 11:08:11;;;;;;;0.50;0.40;;;;;;;17.63;56.66;93755.72;5132400;27;20441;-60
2023/03/27 11:10:41;;;;;;;0.50;0.40;;;;;;;17.40;57.12;93751.38;5132046;27;20494;-60
2023/03/27 11:13:15;;;;;;;0.40;0.40;;;;;;;17.88;58.10;93799.16;5132038;27;20435;-60
2023/03/27 11:15:48;;;;;;;0.50;0.40;;;;;;;17.47;59.04;93787.13;5132416;27;20504;-60
2023/03/27 11:18:22;;;;;;;0.50;0.30;;;;;;;17.84;59.04;93784.09;5132199;27;20458;-60
2023/03/27 11:20:55;;;;;;;0.50;0.40;;;;;;;18.05;58.21;93763.88;5132578;27;20897;-61
2023/03/27 11:23:30;;;;;;;0.67;0.57;;;;;;;17.78;54.94;93751.47;5131802;27;20471;-61
2023/03/27 11:26:02;;;;;;;1.30;0.73;;;;;;;17.84;56.02;93735.84;5122972;27;20475;-61
2023/03/27 11:28:41;;;;;;;0.70;0.70;;;;;;;17.85;54.17;93732.06;5130114;27;20442;-62
2023/03/27 11:31:19;;;;;;;0.80;0.60;;;;;;;17.66;56.03;93717.53;5130899;27;20431;-61
2023/03/27 11:33:52;;;;;;;3.33;0.57;;;;;;;17.80;53.86;93686.78;5107776;27;21011;-60
2023/03/27 11:36:33;;;;;;;0.50;0.40;;;;;;;17.90;52.30;93702.28;5134520;27;20426;-61
2023/03/27 11:39:15;;;;;;;0.60;0.50;;;;;;;17.92;51.34;93694.66;5135674;27;20435;-61
2023/03/27 11:41:50;;;;;;;0.60;0.50;;;;;;;17.57;51.34;93686.72;5104498;28;20499;-59
2023/03/27 11:44:19;;;;;;;1.30;1.20;;;;;;;17.46;51.62;93683.78;5131965;28;20853;-59
2023/03/27 11:47:14;;;;;;;4.53;0.70;;;;;;;17.62;52.34;93670.34;5132516;27;20497;-60
2023/03/27 11:49:58;;;;;;;0.40;0.30;;;;;;;18.38;50.76;93664.88;5131938;28;20439;-60
2023/03/27 11:52:39;;;;;;;0.40;0.30;;;;;;;18.92;49.27;93658.50;5131329;28;20445;-60
2023/03/27 11:55:23;;;;;;;0.93;0.73;;;;;;;18.45;51.48;93656.19;5132069;27;20434;-61
2023/03/27 11:58:07;;;;;;;4.57;0.90;;;;;;;18.41;50.48;93647.31;5132232;28;20521;-60
2023/03/27 12:00:41;;;;;;;0.73;0.70;;;;;;;18.43;50.99;93642.34;5132096;27;20435;-60